Time;durP1;ratioP1;P1;durP2;ratioP2;P2;SDS_P1;SDS_P2;PMS_P1;PMS_P2;Temp;Humidity;BMP_temperature;BMP_pressure;BME280_temperature;BME280_humidity;BME280_pressure;Samples;Min_cycle;Max_cycle;Signal;HPM_P1;HPM_P2
2022/11/13 00:01:37;;;;;;;80.60;24.08;;;;;;;6.76;74.61;100201.41;5132133;28;20062;-72
2022/11/13 00:04:46;;;;;;;94.22;25.08;;;;;;;6.65;74.86;100195.91;5123911;28;20110;-75
2022/11/13 00:07:56;;;;;;;71.20;24.15;;;;;;;6.39;74.88;100187.75;5123114;29;20055;-74
2022/11/13 00:11:13;;;;;;;79.55;24.35;;;;;;;6.58;76.48;100187.50;5122808;29;20082;-72
2022/11/13 00:14:22;;;;;;;81.35;25.17;;;;;;;6.50;75.45;100185.34;5121295;28;20161;-73
2022/11/13 00:17:32;;;;;;;120.78;35.05;;;;;;;6.44;74.70;100180.41;5121477;29;20062;-72
2022/11/13 00:20:42;;;;;;;73.10;29.48;;;;;;;6.57;75.16;100178.75;5133319;28;20059;-72
2022/11/13 00:23:52;;;;;;;101.72;28.83;;;;;;;6.54;75.35;100163.13;5110885;28;20051;-75
2022/11/13 00:27:01;;;;;;;39.88;23.20;;;;;;;6.45;74.43;100168.94;5117804;29;20051;-74
2022/11/13 00:30:10;;;;;;;95.18;24.98;;;;;;;6.28;77.50;100151.47;5122281;29;20501;-74
2022/11/13 00:33:30;;;;;;;76.00;24.83;;;;;;;6.50;75.47;100161.63;5123472;28;20058;-73
2022/11/13 00:36:59;;;;;;;92.50;28.08;;;;;;;6.29;75.31;100161.09;5122172;28;20430;-72
2022/11/13 00:40:08;;;;;;;102.38;25.58;;;;;;;6.26;75.10;100155.16;5123765;28;20165;-72
2022/11/13 00:43:17;;;;;;;91.07;24.45;;;;;;;6.31;76.10;100150.44;5121535;28;20054;-72
2022/11/13 00:46:26;;;;;;;69.50;23.73;;;;;;;6.11;75.80;100135.78;5120449;29;20113;-72
2022/11/13 00:49:39;;;;;;;95.45;24.05;;;;;;;5.96;76.12;100136.66;5116654;28;20101;-73
2022/11/13 00:52:49;;;;;;;70.35;24.23;;;;;;;6.31;75.01;100150.44;5118260;28;20469;-74
2022/11/13 00:55:59;;;;;;;75.60;24.95;;;;;;;6.20;75.81;100137.91;5116436;28;20103;-73
2022/11/13 00:59:11;;;;;;;97.72;25.10;;;;;;;6.15;75.75;100125.94;5115783;28;20090;-74
2022/11/13 01:02:21;;;;;;;80.63;24.58;;;;;;;6.07;75.54;100129.00;5119228;28;20074;-74
2022/11/13 01:05:38;;;;;;;72.18;24.00;;;;;;;6.23;76.31;100126.34;5125471;28;20055;-75
2022/11/13 01:08:49;;;;;;;60.50;23.85;;;;;;;6.27;75.39;100128.69;5128389;28;20086;-74
2022/11/13 01:11:58;;;;;;;107.43;24.70;;;;;;;6.27;75.09;100125.22;5115936;28;20142;-72
2022/11/13 01:15:08;;;;;;;109.55;24.38;;;;;;;6.19;74.20;100125.69;5138386;28;20048;-74
2022/11/13 01:18:17;;;;;;;76.20;23.75;;;;;;;5.89;75.83;100139.63;5115995;28;20051;-73
2022/11/13 01:21:27;;;;;;;72.45;22.90;;;;;;;5.95;74.86;100130.53;5115024;29;20531;-75
2022/11/13 01:24:36;;;;;;;86.88;23.58;;;;;;;5.96;74.43;100124.34;5118129;28;20425;-74
2022/11/13 01:27:46;;;;;;;51.88;21.63;;;;;;;5.96;74.79;100123.47;5119562;29;20160;-74
2022/11/13 01:30:56;;;;;;;66.50;23.15;;;;;;;5.91;74.52;100110.56;5119678;29;20528;-73
2022/11/13 01:34:05;;;;;;;95.38;22.73;;;;;;;5.84;75.22;100112.69;5121440;28;20057;-71
2022/11/13 01:37:14;;;;;;;77.15;22.38;;;;;;;5.60;75.64;100104.38;5120515;29;20113;-74
2022/11/13 01:40:23;;;;;;;63.80;22.95;;;;;;;5.67;76.17;100088.25;5120367;29;20047;-72
2022/11/13 01:43:37;;;;;;;105.00;21.88;;;;;;;5.75;75.82;100093.94;5120968;28;20051;-74
2022/11/13 01:46:54;;;;;;;80.70;22.75;;;;;;;5.85;75.10;100095.09;5120588;29;20055;-75
2022/11/13 01:50:04;;;;;;;65.65;22.83;;;;;;;5.81;75.22;100085.69;5109313;28;20086;-72
2022/11/13 01:53:14;;;;;;;78.78;23.30;;;;;;;5.90;74.32;100090.44;5119568;29;20485;-75
2022/11/13 01:56:24;;;;;;;102.82;22.70;;;;;;;5.75;75.82;100083.41;5120286;29;20075;-75
2022/11/13 01:59:41;;;;;;;100.55;22.52;;;;;;;5.71;75.15;100084.53;5140758;28;20109;-75
2022/11/13 02:02:50;;;;;;;142.82;22.88;;;;;;;5.52;76.36;100079.44;5120636;29;20055;-72
2022/11/13 02:06:00;;;;;;;141.30;21.98;;;;;;;5.69;75.21;100073.22;5117967;28;20525;-74
2022/11/13 02:09:12;;;;;;;52.90;21.40;;;;;;;5.75;74.85;100067.63;5141825;28;20051;-72
2022/11/13 02:12:32;;;;;;;107.47;21.77;;;;;;;5.65;75.37;100067.28;5121350;29;20066;-74
2022/11/13 02:15:44;;;;;;;66.72;20.25;;;;;;;5.70;74.42;100067.03;5109577;29;20082;-73
2022/11/13 02:18:54;;;;;;;92.95;20.83;;;;;;;5.63;75.49;100063.91;5119442;29;20178;-72
2022/11/13 02:22:12;;;;;;;129.50;21.65;;;;;;;5.49;75.04;100055.91;5114878;29;20052;-75
2022/11/13 02:25:23;;;;;;;95.13;20.92;;;;;;;5.61;74.76;100048.19;5123279;28;20131;-72
2022/11/13 02:28:32;;;;;;;66.97;20.23;;;;;;;5.48;75.40;100049.81;5117544;29;20434;-73
2022/11/13 02:31:44;;;;;;;81.90;21.33;;;;;;;5.56;75.67;100045.00;5121090;29;20054;-72
2022/11/13 02:34:55;;;;;;;125.80;21.77;;;;;;;5.16;75.94;100046.31;5115103;28;20049;-72
2022/11/13 02:38:05;;;;;;;199.88;22.45;;;;;;;5.04;76.58;100058.38;5115156;29;20062;-72
2022/11/13 02:41:13;;;;;;;103.85;20.38;;;;;;;5.18;76.69;100049.72;5119373;28;20070;-72
2022/11/13 02:44:22;;;;;;;119.60;19.88;;;;;;;5.35;75.75;100035.66;5131373;28;20101;-74
2022/11/13 02:47:32;;;;;;;170.75;20.88;;;;;;;5.03;75.12;100026.91;5107693;29;20086;-72
2022/11/13 02:50:41;;;;;;;108.93;20.52;;;;;;;4.79;75.22;100014.16;5118081;29;20134;-72
2022/11/13 02:53:50;;;;;;;84.38;19.85;;;;;;;4.95;75.98;100028.16;5120125;28;20425;-72
2022/11/13 02:57:00;;;;;;;120.22;19.02;;;;;;;4.66;75.98;100044.63;5105113;28;20047;-72
2022/11/13 03:00:09;;;;;;;130.55;19.27;;;;;;;4.68;76.18;100034.91;5119192;28;20139;-73
2022/11/13 03:03:22;;;;;;;64.43;17.60;;;;;;;4.78;76.42;100035.25;5124019;28;20170;-74
2022/11/13 03:06:50;;;;;;;61.40;18.58;;;;;;;4.79;75.86;100016.78;5123963;29;21375;-73
2022/11/13 03:10:00;;;;;;;77.13;18.05;;;;;;;4.84;77.21;100040.19;5124600;29;20055;-74
2022/11/13 03:13:08;;;;;;;174.15;20.00;;;;;;;4.66;75.74;100032.34;5122934;29;20054;-74
2022/11/13 03:16:17;;;;;;;178.73;20.40;;;;;;;4.47;77.62;100026.38;5123248;29;20081;-72
2022/11/13 03:19:27;;;;;;;88.70;19.45;;;;;;;4.79;76.65;100029.91;5121130;29;20106;-74
2022/11/13 03:22:35;;;;;;;61.22;18.73;;;;;;;5.00;76.23;100025.31;5122997;29;20063;-74
2022/11/13 03:25:44;;;;;;;104.53;18.63;;;;;;;4.78;75.25;100027.38;5124641;28;20174;-71
2022/11/13 03:28:53;;;;;;;84.10;17.30;;;;;;;4.77;75.29;100033.56;5121774;29;20633;-74
2022/11/13 03:32:02;;;;;;;176.15;18.30;;;;;;;4.65;75.37;100009.63;5122601;28;20055;-73
2022/11/13 03:35:11;;;;;;;72.53;17.35;;;;;;;4.56;76.10;100025.03;5132603;28;20097;-73
2022/11/13 03:38:20;;;;;;;74.15;16.13;;;;;;;4.65;76.36;100020.16;5122319;29;20190;-74
2022/11/13 03:41:29;;;;;;;91.85;15.18;;;;;;;4.76;75.38;100026.59;5120502;29;20618;-73
2022/11/13 03:44:38;;;;;;;138.48;17.08;;;;;;;4.47;75.06;100031.63;5123208;28;20058;-74
2022/11/13 03:47:47;;;;;;;74.72;15.55;;;;;;;4.61;75.55;100026.50;5113101;29;20094;-74
2022/11/13 03:50:56;;;;;;;95.90;16.55;;;;;;;4.20;77.57;100018.97;5123587;29;20418;-73
2022/11/13 03:54:05;;;;;;;212.82;17.85;;;;;;;4.59;75.80;100017.84;5117247;28;20124;-74
2022/11/13 03:57:14;;;;;;;64.25;14.82;;;;;;;4.53;75.69;100020.78;5121772;29;20490;-74
2022/11/13 04:00:23;;;;;;;62.72;15.50;;;;;;;4.55;75.39;100007.59;5121279;28;20098;-73
2022/11/13 04:03:33;;;;;;;63.35;15.65;;;;;;;4.50;75.91;100001.72;5120608;28;20118;-74
2022/11/13 04:06:41;;;;;;;64.72;16.08;;;;;;;4.40;75.80;100006.59;5123499;28;20066;-74
2022/11/13 04:09:51;;;;;;;54.97;14.02;;;;;;;4.48;76.63;99986.06;5131755;28;20051;-73
2022/11/13 04:13:00;;;;;;;142.82;15.27;;;;;;;4.30;75.42;99984.38;5120514;28;20059;-72
2022/11/13 04:16:10;;;;;;;158.30;16.13;;;;;;;4.08;76.38;100000.41;5124306;28;20047;-73
2022/11/13 04:19:19;;;;;;;127.82;15.43;;;;;;;4.24;77.10;99998.69;5122473;29;20058;-73
2022/11/13 04:22:27;;;;;;;152.68;16.25;;;;;;;4.16;76.61;100000.84;5121423;29;20055;-74
2022/11/13 04:25:36;;;;;;;234.20;17.83;;;;;;;4.06;75.66;99989.13;5119584;28;20097;-74
2022/11/13 04:28:45;;;;;;;50.30;14.43;;;;;;;4.25;75.11;99987.25;5119875;29;20110;-74
2022/11/13 04:31:53;;;;;;;83.75;16.33;;;;;;;4.28;75.79;99983.63;5119138;28;20169;-73
2022/11/13 04:35:02;;;;;;;104.97;16.50;;;;;;;4.42;76.03;99994.25;5122794;28;20049;-75
2022/11/13 04:38:12;;;;;;;97.43;16.25;;;;;;;4.11;76.14;99977.47;5121099;29;20105;-74
2022/11/13 04:44:48;;;;;;;117.07;16.35;;;;;;;4.30;76.18;99979.13;5120261;28;20062;-74
2022/11/13 04:47:57;;;;;;;92.28;16.73;;;;;;;4.18;74.81;99960.47;5119644;28;20125;-74
2022/11/13 04:51:06;;;;;;;74.80;16.90;;;;;;;3.93;76.25;99952.16;5130946;28;21280;-74
2022/11/13 04:54:16;;;;;;;46.70;15.40;;;;;;;4.14;76.18;99950.19;5122873;28;20078;-72
2022/11/13 04:57:24;;;;;;;77.35;16.48;;;;;;;4.36;76.14;99963.06;5109959;29;20658;-74
2022/11/13 05:00:33;;;;;;;75.85;15.68;;;;;;;4.38;76.70;99964.69;5119786;29;20122;-75
2022/11/13 05:03:42;;;;;;;91.15;17.38;;;;;;;4.13;77.64;99959.84;5121240;28;20062;-73
2022/11/13 05:06:51;;;;;;;80.57;17.00;;;;;;;4.33;75.43;99961.44;5121453;28;20110;-74
2022/11/13 05:10:00;;;;;;;61.63;15.50;;;;;;;4.46;75.21;99961.63;5122285;29;20059;-73
2022/11/13 05:13:09;;;;;;;66.97;15.82;;;;;;;4.45;74.81;99957.31;5119933;29;20059;-73
2022/11/13 05:16:19;;;;;;;108.72;16.52;;;;;;;3.75;77.50;99943.47;5161768;23;20053;-72
2022/11/13 05:19:27;;;;;;;71.45;16.35;;;;;;;4.29;75.78;99952.03;5127305;28;20509;-71
2022/11/13 05:22:36;;;;;;;99.95;17.98;;;;;;;4.21;76.51;99928.81;5137781;28;20555;-70
2022/11/13 05:25:45;;;;;;;76.75;17.70;;;;;;;4.31;77.48;99949.34;5141899;28;20109;-71
2022/11/13 05:28:59;;;;;;;70.22;17.52;;;;;;;4.40;76.78;99931.31;5139814;28;20047;-71
2022/11/13 05:32:08;;;;;;;99.18;17.25;;;;;;;4.51;76.07;99941.25;5138350;28;20078;-70
2022/11/13 05:35:17;;;;;;;70.47;16.45;;;;;;;4.36;76.55;99931.53;5139482;28;20497;-70
2022/11/13 05:38:27;;;;;;;94.95;16.42;;;;;;;3.93;77.95;99915.41;5140088;28;20547;-71
2022/11/13 05:41:36;;;;;;;87.28;16.67;;;;;;;4.17;76.46;99929.03;5137952;28;20051;-71
2022/11/13 05:44:46;;;;;;;79.82;16.25;;;;;;;4.11;77.87;99927.59;5141495;28;20077;-71
2022/11/13 05:47:56;;;;;;;80.20;15.95;;;;;;;4.21;76.40;99947.19;5140433;28;20073;-70
2022/11/13 05:51:08;;;;;;;54.95;15.63;;;;;;;4.28;75.85;99941.63;5141385;28;20049;-71
2022/11/13 05:54:17;;;;;;;58.53;14.40;;;;;;;4.39;76.88;99931.38;5141796;28;20050;-70
2022/11/13 05:57:27;;;;;;;58.45;14.88;;;;;;;4.52;75.61;99932.44;5135777;28;20079;-71
2022/11/13 06:00:36;;;;;;;97.43;15.00;;;;;;;3.70;75.65;99933.19;5139861;28;20089;-70
2022/11/13 06:03:46;;;;;;;77.28;14.43;;;;;;;3.21;78.27;99933.00;5140941;28;20108;-71
2022/11/13 06:06:55;;;;;;;53.35;13.90;;;;;;;3.94;76.68;99927.59;5127917;28;20113;-72
2022/11/13 06:10:05;;;;;;;71.13;14.65;;;;;;;4.13;75.69;99924.88;5140207;28;20113;-71
2022/11/13 06:13:14;;;;;;;38.80;14.65;;;;;;;4.11;75.65;99924.13;5137501;28;20097;-70
2022/11/13 06:16:29;;;;;;;45.95;14.63;;;;;;;4.13;74.62;99903.88;5139991;28;20081;-71
2022/11/13 06:19:38;;;;;;;73.88;14.82;;;;;;;4.24;75.47;99923.41;5141386;28;20505;-71
2022/11/13 06:22:46;;;;;;;70.35;14.55;;;;;;;4.21;75.15;99902.56;5138274;28;20078;-70
2022/11/13 06:26:00;;;;;;;29.70;14.63;;;;;;;4.37;74.78;99920.09;5141335;28;20130;-71
2022/11/13 06:29:11;;;;;;;77.65;16.42;;;;;;;4.35;75.58;99921.97;5139104;28;20065;-70
2022/11/13 06:32:20;;;;;;;76.10;15.55;;;;;;;4.31;74.97;99913.44;5128606;28;20109;-71
2022/11/13 06:35:29;;;;;;;51.72;15.30;;;;;;;4.42;74.72;99911.06;5139546;28;20070;-71
2022/11/13 06:38:40;;;;;;;37.40;14.63;;;;;;;4.28;74.94;99923.25;5142456;28;20065;-71
2022/11/13 06:41:49;;;;;;;50.65;14.07;;;;;;;4.41;74.54;99916.41;5143928;28;20057;-71
2022/11/13 06:44:57;;;;;;;92.00;14.85;;;;;;;4.19;74.50;99896.53;5144853;28;20671;-71
2022/11/13 06:48:07;;;;;;;77.40;16.88;;;;;;;4.32;74.21;99893.25;5141369;28;20555;-72
2022/11/13 06:51:22;;;;;;;83.88;15.43;;;;;;;4.36;75.08;99897.41;5142543;28;20066;-71
2022/11/13 06:54:31;;;;;;;65.43;14.20;;;;;;;4.28;74.79;99899.63;5141818;28;20073;-72
2022/11/13 06:57:39;;;;;;;76.15;15.88;;;;;;;3.94;75.85;99883.00;5139199;28;20059;-69
2022/11/13 07:00:49;;;;;;;75.25;17.95;;;;;;;4.22;75.99;99893.75;5141050;28;20047;-68
2022/11/13 07:03:58;;;;;;;291.42;65.43;;;;;;;4.22;75.29;99877.16;5141625;28;20421;-70
2022/11/13 07:07:07;;;;;;;169.68;38.63;;;;;;;4.34;75.05;99889.63;5139283;28;20053;-68
2022/11/13 07:10:16;;;;;;;121.35;31.08;;;;;;;4.46;75.13;99888.09;5143172;28;20089;-72
2022/11/13 07:13:26;;;;;;;64.53;14.57;;;;;;;4.47;74.38;99887.19;5140741;28;20201;-71
2022/11/13 07:16:36;;;;;;;87.93;24.42;;;;;;;4.37;75.24;99878.97;5140842;28;20524;-71
2022/11/13 07:20:05;;;;;;;81.28;22.42;;;;;;;4.51;74.40;99890.50;5138930;28;20456;-71
2022/11/13 07:23:14;;;;;;;60.22;16.00;;;;;;;4.55;74.64;99886.78;5141588;28;20417;-68
2022/11/13 07:26:23;;;;;;;61.63;21.52;;;;;;;4.46;74.57;99888.09;5142966;28;20062;-70
2022/11/13 07:29:32;;;;;;;50.72;17.38;;;;;;;4.39;74.25;99878.88;5142075;28;20101;-71
2022/11/13 07:32:41;;;;;;;45.65;15.02;;;;;;;4.47;74.38;99874.06;5141879;28;20082;-71
2022/11/13 07:35:53;;;;;;;45.92;14.50;;;;;;;4.58;74.72;99881.34;5142995;28;20074;-71
2022/11/13 07:39:02;;;;;;;38.63;14.35;;;;;;;4.55;73.96;99866.59;5139499;28;20081;-72
2022/11/13 07:42:15;;;;;;;56.47;16.13;;;;;;;4.56;74.35;99855.16;5140125;28;20057;-71
2022/11/13 07:45:26;;;;;;;43.38;15.77;;;;;;;4.53;74.23;99868.44;5141940;28;20109;-71
2022/11/13 07:48:35;;;;;;;49.78;15.40;;;;;;;4.68;74.54;99857.09;5139413;28;20493;-72
2022/11/13 07:51:44;;;;;;;50.17;16.98;;;;;;;4.47;74.17;99811.03;5143062;28;20425;-69
2022/11/13 07:54:53;;;;;;;28.92;14.93;;;;;;;4.63;73.82;99821.50;5143245;28;20519;-68
2022/11/13 07:58:04;;;;;;;50.25;16.05;;;;;;;4.78;74.33;99838.22;5141196;28;20129;-72
2022/11/13 08:01:13;;;;;;;51.40;15.95;;;;;;;4.64;73.81;99842.47;5142863;28;20051;-70
2022/11/13 08:04:22;;;;;;;59.42;16.40;;;;;;;4.58;75.22;99818.31;5130069;28;20055;-72
2022/11/13 08:07:31;;;;;;;61.15;16.52;;;;;;;4.81;73.62;99830.16;5140472;28;20089;-68
2022/11/13 08:10:40;;;;;;;46.60;17.27;;;;;;;4.79;74.54;99821.50;5128085;28;20096;-71
2022/11/13 08:13:53;;;;;;;53.78;15.95;;;;;;;4.87;74.42;99827.19;5138653;28;20061;-70
2022/11/13 08:17:02;;;;;;;52.35;17.67;;;;;;;4.86;74.95;99836.81;5142174;28;20516;-72
2022/11/13 08:20:11;;;;;;;68.50;28.05;;;;;;;4.79;74.35;99837.28;5126513;28;20046;-69
2022/11/13 08:23:21;;;;;;;56.30;19.00;;;;;;;4.80;74.37;99837.19;5142331;28;20058;-73
2022/11/13 08:26:30;;;;;;;71.47;28.33;;;;;;;4.85;74.40;99836.94;5133417;28;20069;-72
2022/11/13 08:29:38;;;;;;;90.15;20.85;;;;;;;4.79;74.88;99826.75;5140953;28;20062;-70
2022/11/13 08:32:47;;;;;;;52.60;17.88;;;;;;;5.09;74.00;99822.38;5142736;28;20181;-71
2022/11/13 08:35:58;;;;;;;92.60;17.67;;;;;;;4.92;74.36;99812.84;5139989;28;20125;-70
2022/11/13 08:39:08;;;;;;;59.80;19.27;;;;;;;4.95;74.87;99815.28;5141122;28;20058;-71
2022/11/13 08:42:17;;;;;;;42.30;17.50;;;;;;;4.93;75.48;99811.03;5129522;28;20054;-70
2022/11/13 08:45:28;;;;;;;74.32;17.45;;;;;;;5.00;74.98;99799.28;5139687;28;20434;-69
2022/11/13 08:48:37;;;;;;;37.08;18.08;;;;;;;4.78;74.62;99789.13;5138339;28;20109;-69
2022/11/13 08:51:46;;;;;;;44.47;17.73;;;;;;;4.82;75.09;99795.91;5140639;28;20105;-71
2022/11/13 08:54:54;;;;;;;67.05;17.88;;;;;;;5.11;75.27;99796.00;5139946;28;20121;-70
2022/11/13 08:58:03;;;;;;;53.67;18.67;;;;;;;5.09;73.91;99784.72;5138950;28;20074;-70
2022/11/13 09:01:13;;;;;;;42.45;18.60;;;;;;;5.20;75.26;99779.69;5138392;28;20058;-71
2022/11/13 09:04:21;;;;;;;59.22;19.95;;;;;;;5.47;74.55;99774.56;5139589;28;20069;-69
2022/11/13 09:07:30;;;;;;;46.58;19.58;;;;;;;5.65;74.90;99783.97;5138463;28;20521;-70
2022/11/13 09:10:40;;;;;;;57.22;21.15;;;;;;;5.47;75.68;99766.69;5140018;28;20120;-72
2022/11/13 09:13:49;;;;;;;76.55;41.35;;;;;;;5.79;74.63;99792.81;5141721;28;20120;-71
2022/11/13 09:17:01;;;;;;;50.47;19.90;;;;;;;5.64;74.07;99784.91;5140141;28;20051;-71
2022/11/13 09:20:10;;;;;;;43.40;19.60;;;;;;;5.85;73.98;99785.38;5137853;28;20089;-69
2022/11/13 09:23:22;;;;;;;40.63;19.85;;;;;;;5.72;73.01;99786.22;5141416;28;20058;-70
2022/11/13 09:26:33;;;;;;;37.97;19.10;;;;;;;5.44;74.11;99777.38;5138881;28;20054;-70
2022/11/13 09:29:42;;;;;;;43.45;20.45;;;;;;;5.86;73.35;99783.59;5139864;28;20093;-69
2022/11/13 09:32:56;;;;;;;40.65;19.85;;;;;;;4.74;76.34;99752.63;5132628;28;20046;-69
2022/11/13 09:36:13;;;;;;;37.67;19.73;;;;;;;5.00;74.83;99794.00;5132926;28;20082;-70
2022/11/13 09:39:22;;;;;;;39.35;20.13;;;;;;;5.41;74.78;99769.69;5137609;28;20352;-67
2022/11/13 09:42:32;;;;;;;43.38;20.75;;;;;;;5.78;74.36;99786.69;5135177;28;20054;-70
2022/11/13 09:45:41;;;;;;;48.63;23.33;;;;;;;5.99;73.96;99784.56;5137655;28;20066;-70
2022/11/13 09:49:00;;;;;;;45.53;22.02;;;;;;;6.18;70.92;99781.63;5133794;28;20312;-70
2022/11/13 09:52:28;;;;;;;46.10;22.55;;;;;;;6.22;73.72;99791.00;5137713;28;20097;-71
2022/11/13 09:55:44;;;;;;;46.10;22.95;;;;;;;6.28;73.11;99784.53;5135785;28;20148;-71
2022/11/13 09:59:19;;;;;;;47.25;23.10;;;;;;;6.14;72.48;99774.88;5137494;28;20674;-70
2022/11/13 10:03:07;;;;;;;45.55;23.45;;;;;;;6.53;73.13;99762.75;5138114;28;20063;-71
2022/11/13 10:06:35;;;;;;;41.38;21.98;;;;;;;6.80;70.92;99766.19;5138373;28;20058;-72
2022/11/13 10:09:56;;;;;;;46.90;22.05;;;;;;;7.04;72.40;99755.81;5141740;28;20046;-71
2022/11/13 10:13:11;;;;;;;43.72;23.02;;;;;;;7.14;71.39;99760.47;5136064;28;20050;-72
2022/11/13 10:16:38;;;;;;;47.45;23.73;;;;;;;7.28;72.06;99755.97;5134930;28;20077;-71
2022/11/13 10:19:59;;;;;;;47.97;24.45;;;;;;;7.42;71.91;99752.38;5135680;28;20065;-71
2022/11/13 10:23:18;;;;;;;44.67;22.77;;;;;;;7.52;69.96;99752.59;5134081;28;20062;-71
2022/11/13 10:26:28;;;;;;;42.05;22.45;;;;;;;7.27;70.02;99758.69;5137116;28;20105;-70
2022/11/13 10:29:38;;;;;;;39.00;22.27;;;;;;;7.56;69.32;99743.50;5136286;28;20516;-70
2022/11/13 10:32:47;;;;;;;42.70;22.80;;;;;;;7.62;70.88;99739.59;5134496;28;20051;-70
2022/11/13 10:36:12;;;;;;;43.20;22.23;;;;;;;7.59;71.63;99721.34;5139235;28;20648;-69
2022/11/13 10:39:22;;;;;;;42.17;23.00;;;;;;;7.68;70.22;99729.47;5137260;28;20671;-72
2022/11/13 10:42:38;;;;;;;44.42;24.33;;;;;;;7.54;69.71;99717.22;5133450;28;20686;-71
2022/11/13 10:45:59;;;;;;;39.63;23.30;;;;;;;7.77;70.14;99715.59;5140463;28;20209;-72
2022/11/13 10:49:17;;;;;;;37.92;21.83;;;;;;;7.80;70.57;99725.09;5132895;28;20122;-71
2022/11/13 10:52:27;;;;;;;41.45;22.17;;;;;;;7.76;70.83;99716.56;5135170;28;20082;-70
2022/11/13 10:55:39;;;;;;;38.47;21.02;;;;;;;7.49;72.81;99707.94;5135458;28;20228;-70
2022/11/13 10:59:17;;;;;;;38.67;21.30;;;;;;;7.91;71.22;99701.44;5136426;28;20416;-70
2022/11/13 11:02:27;;;;;;;34.28;20.55;;;;;;;7.93;70.30;99693.41;5135377;28;20062;-70
2022/11/13 11:05:36;;;;;;;38.47;21.80;;;;;;;8.21;70.14;99687.81;5140881;28;20234;-71
2022/11/13 11:08:45;;;;;;;35.33;21.13;;;;;;;8.02;71.25;99681.34;5138649;28;20073;-70
2022/11/13 11:12:19;;;;;;;33.13;20.15;;;;;;;8.47;71.39;99671.84;5136666;28;20137;-73
2022/11/13 11:15:45;;;;;;;36.42;22.38;;;;;;;8.64;70.52;99662.66;5163850;23;20111;-93
2022/11/13 11:19:03;;;;;;;33.78;21.25;;;;;;;8.73;70.57;99656.69;5173861;28;20057;-92
2022/11/13 11:22:20;;;;;;;32.60;21.30;;;;;;;8.70;70.54;99599.59;5158159;28;20062;-88
2022/11/13 11:25:51;;;;;;;35.80;21.73;;;;;;;8.96;69.73;99594.13;5157767;28;20054;-89
2022/11/13 11:29:23;;;;;;;33.58;20.95;;;;;;;8.92;68.49;99590.88;5139220;28;20077;-89
2022/11/13 11:32:42;;;;;;;33.75;21.15;;;;;;;9.53;68.44;99602.88;5145689;28;20059;-84
2022/11/13 11:35:59;;;;;;;29.00;18.90;;;;;;;9.08;68.79;99569.38;5142200;28;20726;-87
2022/11/13 11:39:11;;;;;;;27.98;17.70;;;;;;;9.53;67.63;99601.06;5152266;28;20063;-90
2022/11/13 11:42:48;;;;;;;23.10;16.23;;;;;;;9.68;67.90;99596.38;5140166;28;20053;-87
2022/11/13 11:45:57;;;;;;;24.02;16.40;;;;;;;9.77;68.28;99576.25;5146654;28;20512;-88
2022/11/13 11:49:09;;;;;;;26.33;16.25;;;;;;;9.64;68.39;99557.88;5134915;28;20101;-89
2022/11/13 11:52:41;;;;;;;24.45;16.85;;;;;;;9.73;68.66;99591.53;5138993;28;20057;-86
2022/11/13 11:56:06;;;;;;;26.50;16.90;;;;;;;9.81;68.16;99569.75;5136197;28;20046;-87
2022/11/13 11:59:22;;;;;;;24.50;16.15;;;;;;;9.95;68.42;99563.31;5137746;28;20555;-88
2022/11/13 12:02:45;;;;;;;26.60;15.55;;;;;;;9.88;67.86;99541.78;5156595;28;20051;-89
2022/11/13 12:06:23;;;;;;;25.20;15.82;;;;;;;10.02;67.01;99545.94;5148065;28;20105;-87
2022/11/13 12:09:39;;;;;;;23.88;14.80;;;;;;;9.54;67.00;99461.63;5147389;28;20089;-90
2022/11/13 12:13:16;;;;;;;22.77;15.05;;;;;;;10.24;65.94;99534.41;5139392;28;20492;-90
2022/11/13 12:16:41;;;;;;;21.67;14.70;;;;;;;10.20;66.62;99532.97;5144443;28;20059;-83
2022/11/13 12:20:20;;;;;;;22.83;14.40;;;;;;;9.73;66.34;99429.16;5137234;28;20543;-90
2022/11/13 12:23:56;;;;;;;21.48;13.75;;;;;;;9.94;67.65;99511.31;5132120;28;20148;-87
2022/11/13 12:27:34;;;;;;;21.33;13.77;;;;;;;10.19;67.81;99497.69;5135670;28;20117;-87
2022/11/13 12:31:08;;;;;;;19.85;13.90;;;;;;;10.38;67.82;99504.97;5140871;28;20182;-86
2022/11/13 12:34:34;;;;;;;23.27;15.02;;;;;;;10.39;67.45;99497.84;5137508;28;20137;-86
2022/11/13 12:38:00;;;;;;;22.92;14.25;;;;;;;10.40;67.26;99492.44;5138446;28;20188;-85
2022/11/13 12:41:23;;;;;;;20.20;14.30;;;;;;;10.42;66.87;99468.41;5138393;28;20564;-85
2022/11/13 12:44:43;;;;;;;20.50;14.13;;;;;;;10.30;67.37;99444.66;5140445;28;20055;-84
2022/11/13 12:47:53;;;;;;;18.92;13.35;;;;;;;10.39;66.96;99479.28;5136429;28;20085;-85
2022/11/13 12:51:09;;;;;;;20.42;13.25;;;;;;;10.53;66.38;99465.72;5138179;28;20095;-85
2022/11/13 12:54:39;;;;;;;19.08;12.65;;;;;;;10.40;66.89;99444.72;5138807;28;20608;-87
2022/11/13 12:57:48;;;;;;;23.20;12.75;;;;;;;10.19;67.65;99420.81;5142498;28;20046;-87
2022/11/13 13:01:17;;;;;;;17.83;12.38;;;;;;;10.40;66.63;99406.72;5137794;28;20112;-88
2022/11/13 13:04:54;;;;;;;21.52;13.00;;;;;;;10.74;65.82;99442.63;5140174;28;20057;-85
2022/11/13 13:08:27;;;;;;;18.73;12.18;;;;;;;10.48;65.64;99407.75;5140441;28;20062;-84
2022/11/13 13:11:50;;;;;;;14.73;10.18;;;;;;;10.43;66.49;99433.84;5144506;28;20070;-86
2022/11/13 13:15:31;;;;;;;15.55;10.57;;;;;;;10.71;65.74;99426.97;5140809;28;20127;-84
2022/11/13 13:18:41;;;;;;;15.05;10.25;;;;;;;10.79;65.12;99384.72;5141577;28;20053;-84
2022/11/13 13:21:50;;;;;;;16.17;11.00;;;;;;;11.01;64.83;99383.63;5140727;28;20085;-87
2022/11/13 13:25:23;;;;;;;19.92;10.70;;;;;;;11.18;65.42;99408.66;5139376;28;20274;-85
2022/11/13 13:28:32;;;;;;;16.80;10.75;;;;;;;11.22;64.61;99407.41;5133095;28;20540;-85
2022/11/13 13:31:44;;;;;;;14.90;9.52;;;;;;;11.06;64.63;99407.13;5135923;28;20423;-86
2022/11/13 13:35:18;;;;;;;15.05;9.05;;;;;;;11.33;63.81;99406.44;5138978;28;20560;-86
2022/11/13 13:38:50;;;;;;;15.32;8.95;;;;;;;11.35;64.30;99395.69;5140381;28;20569;-83
2022/11/13 13:42:24;;;;;;;13.48;9.32;;;;;;;11.37;64.61;99388.44;5148096;28;20070;-83
2022/11/13 13:45:46;;;;;;;15.23;9.70;;;;;;;11.12;64.17;99361.44;5140748;28;20066;-84
2022/11/13 13:49:04;;;;;;;16.40;9.38;;;;;;;11.30;63.26;99374.88;5145559;28;20117;-83
2022/11/13 13:52:14;;;;;;;12.82;8.75;;;;;;;11.22;64.01;99343.69;5142524;28;20066;-83
2022/11/13 13:55:31;;;;;;;15.23;8.93;;;;;;;11.14;64.32;99343.56;5132775;28;20149;-83
2022/11/13 13:58:41;;;;;;;13.15;9.07;;;;;;;11.10;65.03;99326.25;5135894;28;20050;-84
2022/11/13 14:01:59;;;;;;;13.73;8.95;;;;;;;11.17;64.40;99359.22;5142155;28;20058;-85
2022/11/13 14:05:37;;;;;;;14.98;9.13;;;;;;;11.35;64.52;99346.06;5139678;28;20272;-86
2022/11/13 14:08:47;;;;;;;15.00;9.35;;;;;;;11.42;64.20;99346.34;5145544;28;20086;-86
2022/11/13 14:11:58;;;;;;;13.85;9.52;;;;;;;11.43;64.91;99343.56;5153407;28;20058;-86
2022/11/13 14:15:28;;;;;;;14.60;9.63;;;;;;;11.43;64.26;99332.13;5141573;28;20061;-85
2022/11/13 14:18:37;;;;;;;14.60;9.82;;;;;;;11.14;64.77;99305.56;5140426;28;20093;-87
2022/11/13 14:21:53;;;;;;;15.25;9.80;;;;;;;11.25;64.95;99308.06;5134793;28;20066;-87
2022/11/13 14:25:02;;;;;;;15.18;10.05;;;;;;;10.97;65.14;99273.44;5137492;28;20047;-87
2022/11/13 14:28:17;;;;;;;14.02;9.55;;;;;;;10.95;65.67;99285.16;5140720;28;20066;-91
2022/11/13 14:31:34;;;;;;;15.68;9.75;;;;;;;11.03;65.80;99301.25;5135050;28;20058;-89
2022/11/13 14:34:45;;;;;;;13.18;9.15;;;;;;;11.33;65.67;99334.78;5135420;28;20078;-89
2022/11/13 14:37:54;;;;;;;16.13;10.05;;;;;;;11.13;66.81;99310.06;5154168;28;20061;-86
2022/11/13 14:41:04;;;;;;;14.95;9.57;;;;;;;11.28;66.28;99332.53;5151421;28;20051;-86
2022/11/13 14:44:24;;;;;;;13.45;9.50;;;;;;;11.11;66.86;99341.19;5141742;28;20493;-85
2022/11/13 14:47:39;;;;;;;15.48;10.30;;;;;;;11.26;66.70;99336.31;5143211;28;20046;-89
2022/11/13 14:50:56;;;;;;;16.40;10.77;;;;;;;11.00;67.17;99315.63;5138311;28;20055;-89
2022/11/13 14:54:25;;;;;;;15.27;10.45;;;;;;;10.94;67.43;99318.81;5129676;28;20521;-85
2022/11/13 14:57:34;;;;;;;16.95;10.60;;;;;;;10.97;67.13;99302.63;5146488;28;20047;-86
2022/11/13 15:00:44;;;;;;;16.35;10.77;;;;;;;10.75;67.27;99301.06;5147937;28;20051;-87